sensor_id;sensor_type;location;lat;lon;timestamp;pressure;altitude;pressure_sealevel;temperature;humidity
77086;BME280;66014;53.134;18.006;2023-12-29T00:02:10;100502.91;;;5.78;82.65
77086;BME280;66014;53.134;18.006;2023-12-29T00:04:36;100502.13;;;5.76;82.61
77086;BME280;66014;53.134;18.006;2023-12-29T00:07:02;100499.16;;;5.74;82.72
77086;BME280;66014;53.134;18.006;2023-12-29T00:09:28;100497.98;;;5.71;82.95
77086;BME280;66014;53.134;18.006;2023-12-29T00:11:54;100487.95;;;5.70;82.90
77086;BME280;66014;53.134;18.006;2023-12-29T00:14:20;100485.95;;;5.68;82.78
77086;BME280;66014;53.134;18.006;2023-12-29T00:16:46;100480.52;;;5.66;82.86
77086;BME280;66014;53.134;18.006;2023-12-29T00:19:12;100474.58;;;5.66;82.97
77086;BME280;66014;53.134;18.006;2023-12-29T00:21:41;100474.26;;;5.65;82.94
77086;BME280;66014;53.134;18.006;2023-12-29T00:24:07;100467.11;;;5.65;82.84
77086;BME280;66014;53.134;18.006;2023-12-29T00:26:33;100462.63;;;5.64;83.10
77086;BME280;66014;53.134;18.006;2023-12-29T00:28:59;100460.33;;;5.62;83.06
77086;BME280;66014;53.134;18.006;2023-12-29T00:31:25;100458.80;;;5.62;83.11
77086;BME280;66014;53.134;18.006;2023-12-29T00:33:51;100460.50;;;5.62;83.19
77086;BME280;66014;53.134;18.006;2023-12-29T00:36:19;100462.80;;;5.62;83.08
77086;BME280;66014;53.134;18.006;2023-12-29T00:38:46;100460.72;;;5.62;83.16
77086;BME280;66014;53.134;18.006;2023-12-29T00:41:12;100458.45;;;5.62;83.18
77086;BME280;66014;53.134;18.006;2023-12-29T00:43:38;100461.48;;;5.61;83.17
77086;BME280;66014;53.134;18.006;2023-12-29T00:46:07;100458.48;;;5.62;83.17
77086;BME280;66014;53.134;18.006;2023-12-29T00:48:34;100451.81;;;5.61;83.15
77086;BME280;66014;53.134;18.006;2023-12-29T00:51:01;100448.39;;;5.62;83.16
77086;BME280;66014;53.134;18.006;2023-12-29T00:53:28;100450.13;;;5.64;83.12
77086;BME280;66014;53.134;18.006;2023-12-29T00:55:55;100449.16;;;5.65;82.97
77086;BME280;66014;53.134;18.006;2023-12-29T00:58:20;100448.53;;;5.64;83.03
77086;BME280;66014;53.134;18.006;2023-12-29T01:00:46;100444.81;;;5.64;82.93
77086;BME280;66014;53.134;18.006;2023-12-29T01:03:12;100438.39;;;5.64;82.92
77086;BME280;66014;53.134;18.006;2023-12-29T01:05:39;100429.70;;;5.62;83.04
77086;BME280;66014;53.134;18.006;2023-12-29T01:08:04;100436.83;;;5.62;82.96
77086;BME280;66014;53.134;18.006;2023-12-29T01:10:31;100438.55;;;5.60;83.07
77086;BME280;66014;53.134;18.006;2023-12-29T01:12:59;100434.92;;;5.59;83.00
77086;BME280;66014;53.134;18.006;2023-12-29T01:15:25;100436.27;;;5.58;83.06
77086;BME280;66014;53.134;18.006;2023-12-29T01:17:50;100435.36;;;5.57;83.06
77086;BME280;66014;53.134;18.006;2023-12-29T01:20:16;100434.77;;;5.56;83.04
77086;BME280;66014;53.134;18.006;2023-12-29T01:22:42;100431.64;;;5.55;83.10
77086;BME280;66014;53.134;18.006;2023-12-29T01:25:08;100427.85;;;5.55;83.13
77086;BME280;66014;53.134;18.006;2023-12-29T01:27:34;100430.05;;;5.53;83.22
77086;BME280;66014;53.134;18.006;2023-12-29T01:30:00;100428.02;;;5.51;83.12
77086;BME280;66014;53.134;18.006;2023-12-29T01:32:26;100429.59;;;5.50;83.34
77086;BME280;66014;53.134;18.006;2023-12-29T01:34:52;100426.67;;;5.49;83.25
77086;BME280;66014;53.134;18.006;2023-12-29T01:37:18;100424.06;;;5.48;83.32
77086;BME280;66014;53.134;18.006;2023-12-29T01:39:44;100418.19;;;5.47;83.14
77086;BME280;66014;53.134;18.006;2023-12-29T01:42:10;100415.08;;;5.47;83.14
77086;BME280;66014;53.134;18.006;2023-12-29T01:44:42;100410.33;;;5.47;83.38
77086;BME280;66014;53.134;18.006;2023-12-29T01:47:13;100412.92;;;5.46;83.31
77086;BME280;66014;53.134;18.006;2023-12-29T01:49:40;100412.27;;;5.43;83.38
77086;BME280;66014;53.134;18.006;2023-12-29T01:52:06;100419.11;;;5.41;83.38
77086;BME280;66014;53.134;18.006;2023-12-29T01:54:35;100410.15;;;5.41;83.42
77086;BME280;66014;53.134;18.006;2023-12-29T01:57:04;100405.48;;;5.41;83.39
77086;BME280;66014;53.134;18.006;2023-12-29T01:59:34;100399.95;;;5.39;83.41
77086;BME280;66014;53.134;18.006;2023-12-29T02:02:01;100397.90;;;5.39;83.49
77086;BME280;66014;53.134;18.006;2023-12-29T02:04:28;100393.04;;;5.38;83.46
77086;BME280;66014;53.134;18.006;2023-12-29T02:06:55;100399.68;;;5.39;83.49
77086;BME280;66014;53.134;18.006;2023-12-29T02:09:22;100394.20;;;5.39;83.46
77086;BME280;66014;53.134;18.006;2023-12-29T02:11:48;100387.80;;;5.38;83.62
77086;BME280;66014;53.134;18.006;2023-12-29T02:14:24;100381.23;;;5.38;83.55
77086;BME280;66014;53.134;18.006;2023-12-29T02:19:57;100365.64;;;5.39;83.62
77086;BME280;66014;53.134;18.006;2023-12-29T02:22:24;100370.19;;;5.40;83.66
77086;BME280;66014;53.134;18.006;2023-12-29T02:24:51;100368.06;;;5.40;83.59
77086;BME280;66014;53.134;18.006;2023-12-29T02:27:43;100364.61;;;5.39;83.63
77086;BME280;66014;53.134;18.006;2023-12-29T02:32:50;100360.66;;;5.40;83.67
77086;BME280;66014;53.134;18.006;2023-12-29T02:35:23;100357.36;;;5.40;83.76
77086;BME280;66014;53.134;18.006;2023-12-29T02:37:50;100344.30;;;5.40;83.83
77086;BME280;66014;53.134;18.006;2023-12-29T02:40:17;100347.02;;;5.41;83.76
77086;BME280;66014;53.134;18.006;2023-12-29T02:42:48;100342.15;;;5.42;83.78
77086;BME280;66014;53.134;18.006;2023-12-29T02:45:17;100339.39;;;5.43;83.72
77086;BME280;66014;53.134;18.006;2023-12-29T02:47:46;100344.66;;;5.43;83.77
77086;BME280;66014;53.134;18.006;2023-12-29T02:50:13;100339.10;;;5.45;83.83
77086;BME280;66014;53.134;18.006;2023-12-29T02:52:40;100332.89;;;5.47;83.72
77086;BME280;66014;53.134;18.006;2023-12-29T02:55:08;100333.24;;;5.47;83.77
77086;BME280;66014;53.134;18.006;2023-12-29T02:57:35;100329.62;;;5.48;83.66
77086;BME280;66014;53.134;18.006;2023-12-29T03:00:02;100322.40;;;5.48;83.84
77086;BME280;66014;53.134;18.006;2023-12-29T03:02:29;100320.03;;;5.49;83.90
77086;BME280;66014;53.134;18.006;2023-12-29T03:04:55;100315.19;;;5.50;83.94
77086;BME280;66014;53.134;18.006;2023-12-29T03:07:21;100311.61;;;5.52;83.95
77086;BME280;66014;53.134;18.006;2023-12-29T03:09:46;100305.84;;;5.52;83.85
77086;BME280;66014;53.134;18.006;2023-12-29T03:12:13;100307.45;;;5.51;83.83
77086;BME280;66014;53.134;18.006;2023-12-29T03:14:38;100306.17;;;5.52;83.88
77086;BME280;66014;53.134;18.006;2023-12-29T03:17:05;100302.12;;;5.52;84.02
77086;BME280;66014;53.134;18.006;2023-12-29T03:19:33;100302.84;;;5.52;83.97
77086;BME280;66014;53.134;18.006;2023-12-29T03:21:59;100304.20;;;5.52;84.12
77086;BME280;66014;53.134;18.006;2023-12-29T03:24:25;100303.54;;;5.55;83.98
77086;BME280;66014;53.134;18.006;2023-12-29T03:26:51;100302.77;;;5.57;83.99
77086;BME280;66014;53.134;18.006;2023-12-29T03:29:16;100299.39;;;5.59;84.01
77086;BME280;66014;53.134;18.006;2023-12-29T03:31:42;100300.46;;;5.61;83.85
77086;BME280;66014;53.134;18.006;2023-12-29T03:34:09;100302.58;;;5.63;83.81
77086;BME280;66014;53.134;18.006;2023-12-29T03:36:37;100297.14;;;5.64;83.73
77086;BME280;66014;53.134;18.006;2023-12-29T03:39:04;100294.61;;;5.65;83.75
77086;BME280;66014;53.134;18.006;2023-12-29T03:41:30;100296.64;;;5.66;83.78
77086;BME280;66014;53.134;18.006;2023-12-29T03:43:56;100298.41;;;5.66;83.74
77086;BME280;66014;53.134;18.006;2023-12-29T03:46:22;100299.05;;;5.66;83.72
77086;BME280;66014;53.134;18.006;2023-12-29T03:48:49;100298.04;;;5.68;83.70
77086;BME280;66014;53.134;18.006;2023-12-29T03:51:15;100289.20;;;5.70;83.61
77086;BME280;66014;53.134;18.006;2023-12-29T03:53:41;100286.48;;;5.70;83.47
77086;BME280;66014;53.134;18.006;2023-12-29T03:56:08;100276.75;;;5.71;83.49
77086;BME280;66014;53.134;18.006;2023-12-29T03:58:35;100276.08;;;5.71;83.44
77086;BME280;66014;53.134;18.006;2023-12-29T04:01:01;100272.64;;;5.70;83.48
77086;BME280;66014;53.134;18.006;2023-12-29T04:03:28;100268.58;;;5.68;83.46
77086;BME280;66014;53.134;18.006;2023-12-29T04:05:54;100272.05;;;5.67;83.47
77086;BME280;66014;53.134;18.006;2023-12-29T04:08:19;100274.20;;;5.67;83.42
77086;BME280;66014;53.134;18.006;2023-12-29T04:10:45;100276.42;;;5.65;83.44
77086;BME280;66014;53.134;18.006;2023-12-29T04:13:11;100270.21;;;5.64;83.42
77086;BME280;66014;53.134;18.006;2023-12-29T04:15:37;100259.91;;;5.62;83.52
77086;BME280;66014;53.134;18.006;2023-12-29T04:18:03;100256.08;;;5.61;83.60
77086;BME280;66014;53.134;18.006;2023-12-29T04:20:29;100250.75;;;5.60;83.58
77086;BME280;66014;53.134;18.006;2023-12-29T04:22:55;100243.65;;;5.59;83.55
77086;BME280;66014;53.134;18.006;2023-12-29T04:25:21;100248.62;;;5.58;83.58
77086;BME280;66014;53.134;18.006;2023-12-29T04:27:47;100251.00;;;5.58;83.51
77086;BME280;66014;53.134;18.006;2023-12-29T04:30:13;100251.09;;;5.59;83.57
77086;BME280;66014;53.134;18.006;2023-12-29T04:32:39;100237.98;;;5.59;83.53
77086;BME280;66014;53.134;18.006;2023-12-29T04:35:05;100238.56;;;5.61;83.46
77086;BME280;66014;53.134;18.006;2023-12-29T04:37:31;100242.29;;;5.62;83.44
77086;BME280;66014;53.134;18.006;2023-12-29T04:39:57;100235.48;;;5.63;83.42
77086;BME280;66014;53.134;18.006;2023-12-29T04:42:23;100231.91;;;5.65;83.32
77086;BME280;66014;53.134;18.006;2023-12-29T04:44:51;100235.85;;;5.68;83.19
77086;BME280;66014;53.134;18.006;2023-12-29T04:47:17;100228.00;;;5.73;83.14
77086;BME280;66014;53.134;18.006;2023-12-29T04:49:43;100225.90;;;5.76;82.96
77086;BME280;66014;53.134;18.006;2023-12-29T04:52:09;100213.27;;;5.77;82.91
77086;BME280;66014;53.134;18.006;2023-12-29T04:54:35;100205.31;;;5.79;82.91
77086;BME280;66014;53.134;18.006;2023-12-29T04:57:00;100206.39;;;5.81;82.73
77086;BME280;66014;53.134;18.006;2023-12-29T04:59:26;100203.98;;;5.82;82.58
77086;BME280;66014;53.134;18.006;2023-12-29T05:01:52;100204.48;;;5.84;82.56
77086;BME280;66014;53.134;18.006;2023-12-29T05:04:18;100201.83;;;5.86;82.55
77086;BME280;66014;53.134;18.006;2023-12-29T05:06:44;100194.92;;;5.86;82.50
77086;BME280;66014;53.134;18.006;2023-12-29T05:09:10;100190.89;;;5.86;82.42
77086;BME280;66014;53.134;18.006;2023-12-29T05:11:36;100185.66;;;5.87;82.36
77086;BME280;66014;53.134;18.006;2023-12-29T05:14:02;100194.27;;;5.87;82.34
77086;BME280;66014;53.134;18.006;2023-12-29T05:16:28;100198.39;;;5.88;82.24
77086;BME280;66014;53.134;18.006;2023-12-29T05:18:54;100199.16;;;5.89;82.18
77086;BME280;66014;53.134;18.006;2023-12-29T05:21:19;100194.58;;;5.89;82.26
77086;BME280;66014;53.134;18.006;2023-12-29T05:23:47;100194.28;;;5.90;82.02
77086;BME280;66014;53.134;18.006;2023-12-29T05:26:16;100187.15;;;5.91;82.03
77086;BME280;66014;53.134;18.006;2023-12-29T05:28:42;100190.62;;;5.92;82.03
77086;BME280;66014;53.134;18.006;2023-12-29T05:31:08;100186.69;;;5.92;81.97
77086;BME280;66014;53.134;18.006;2023-12-29T05:33:35;100181.11;;;5.92;82.02
77086;BME280;66014;53.134;18.006;2023-12-29T05:36:09;100183.06;;;5.92;81.83
77086;BME280;66014;53.134;18.006;2023-12-29T05:38:36;100190.77;;;5.94;81.69
77086;BME280;66014;53.134;18.006;2023-12-29T05:41:03;100185.70;;;5.97;81.71
77086;BME280;66014;53.134;18.006;2023-12-29T05:43:31;100177.27;;;5.98;81.67
77086;BME280;66014;53.134;18.006;2023-12-29T05:45:58;100173.41;;;5.98;81.72
77086;BME280;66014;53.134;18.006;2023-12-29T05:48:23;100162.74;;;5.97;81.62
77086;BME280;66014;53.134;18.006;2023-12-29T05:50:51;100163.66;;;5.97;81.61
77086;BME280;66014;53.134;18.006;2023-12-29T05:53:17;100167.52;;;5.97;81.60
77086;BME280;66014;53.134;18.006;2023-12-29T05:55:43;100164.10;;;5.98;81.57
77086;BME280;66014;53.134;18.006;2023-12-29T05:58:10;100160.40;;;5.98;81.58
77086;BME280;66014;53.134;18.006;2023-12-29T06:00:36;100157.78;;;5.97;81.56
77086;BME280;66014;53.134;18.006;2023-12-29T06:03:03;100152.62;;;5.98;81.49
77086;BME280;66014;53.134;18.006;2023-12-29T06:05:32;100152.91;;;5.99;81.60
77086;BME280;66014;53.134;18.006;2023-12-29T06:07:58;100148.64;;;5.97;81.61
77086;BME280;66014;53.134;18.006;2023-12-29T06:10:24;100151.65;;;5.95;81.51
77086;BME280;66014;53.134;18.006;2023-12-29T06:12:50;100151.54;;;5.95;81.62
77086;BME280;66014;53.134;18.006;2023-12-29T06:15:16;100157.48;;;5.94;81.71
77086;BME280;66014;53.134;18.006;2023-12-29T06:17:42;100161.17;;;5.94;81.70
77086;BME280;66014;53.134;18.006;2023-12-29T06:20:10;100161.17;;;5.94;81.67
77086;BME280;66014;53.134;18.006;2023-12-29T06:22:41;100159.68;;;5.93;81.58
77086;BME280;66014;53.134;18.006;2023-12-29T06:25:11;100163.81;;;5.92;81.73
77086;BME280;66014;53.134;18.006;2023-12-29T06:27:38;100159.98;;;5.92;81.69
77086;BME280;66014;53.134;18.006;2023-12-29T06:30:06;100160.94;;;5.91;81.67
77086;BME280;66014;53.134;18.006;2023-12-29T06:32:32;100165.77;;;5.92;81.65
77086;BME280;66014;53.134;18.006;2023-12-29T06:34:59;100170.29;;;5.92;81.68
77086;BME280;66014;53.134;18.006;2023-12-29T06:37:24;100161.85;;;5.96;81.61
77086;BME280;66014;53.134;18.006;2023-12-29T06:39:50;100161.30;;;5.99;81.44
77086;BME280;66014;53.134;18.006;2023-12-29T06:42:16;100149.80;;;6.03;81.35
77086;BME280;66014;53.134;18.006;2023-12-29T06:44:42;100150.66;;;6.07;81.25
77086;BME280;66014;53.134;18.006;2023-12-29T06:47:07;100143.80;;;6.10;81.29
77086;BME280;66014;53.134;18.006;2023-12-29T06:49:35;100136.76;;;6.13;81.14
77086;BME280;66014;53.134;18.006;2023-12-29T06:52:01;100136.15;;;6.15;81.19
77086;BME280;66014;53.134;18.006;2023-12-29T06:54:27;100137.38;;;6.17;81.06
77086;BME280;66014;53.134;18.006;2023-12-29T06:56:53;100127.67;;;6.19;81.06
77086;BME280;66014;53.134;18.006;2023-12-29T06:59:19;100134.64;;;6.21;80.94
77086;BME280;66014;53.134;18.006;2023-12-29T07:01:46;100133.39;;;6.23;81.02
77086;BME280;66014;53.134;18.006;2023-12-29T07:04:12;100134.89;;;6.24;81.03
77086;BME280;66014;53.134;18.006;2023-12-29T07:06:43;100124.55;;;6.27;80.86
77086;BME280;66014;53.134;18.006;2023-12-29T07:09:12;100132.05;;;6.29;80.90
77086;BME280;66014;53.134;18.006;2023-12-29T07:11:37;100137.28;;;6.31;80.78
77086;BME280;66014;53.134;18.006;2023-12-29T07:14:03;100139.55;;;6.34;80.61
77086;BME280;66014;53.134;18.006;2023-12-29T07:16:29;100136.55;;;6.38;80.56
77086;BME280;66014;53.134;18.006;2023-12-29T07:18:55;100138.09;;;6.41;80.47
77086;BME280;66014;53.134;18.006;2023-12-29T07:21:21;100147.15;;;6.44;80.39
77086;BME280;66014;53.134;18.006;2023-12-29T07:23:47;100143.65;;;6.47;80.24
77086;BME280;66014;53.134;18.006;2023-12-29T07:26:13;100139.70;;;6.49;80.24
77086;BME280;66014;53.134;18.006;2023-12-29T07:28:38;100139.91;;;6.52;79.92
77086;BME280;66014;53.134;18.006;2023-12-29T07:31:05;100147.52;;;6.55;79.88
77086;BME280;66014;53.134;18.006;2023-12-29T07:33:31;100151.95;;;6.58;79.68
77086;BME280;66014;53.134;18.006;2023-12-29T07:35:57;100141.98;;;6.61;79.65
77086;BME280;66014;53.134;18.006;2023-12-29T07:38:24;100140.20;;;6.62;79.74
77086;BME280;66014;53.134;18.006;2023-12-29T07:40:50;100140.92;;;6.64;79.60
77086;BME280;66014;53.134;18.006;2023-12-29T07:43:16;100143.73;;;6.66;79.61
77086;BME280;66014;53.134;18.006;2023-12-29T07:45:47;100137.73;;;6.67;79.36
77086;BME280;66014;53.134;18.006;2023-12-29T07:48:13;100141.02;;;6.69;79.42
77086;BME280;66014;53.134;18.006;2023-12-29T07:50:39;100136.63;;;6.71;79.49
77086;BME280;66014;53.134;18.006;2023-12-29T07:53:06;100140.66;;;6.73;79.26
77086;BME280;66014;53.134;18.006;2023-12-29T07:55:38;100135.83;;;6.76;79.14
77086;BME280;66014;53.134;18.006;2023-12-29T07:58:05;100129.39;;;6.81;79.23
77086;BME280;66014;53.134;18.006;2023-12-29T08:00:36;100133.82;;;6.85;78.84
77086;BME280;66014;53.134;18.006;2023-12-29T08:03:03;100129.65;;;6.91;78.76
77086;BME280;66014;53.134;18.006;2023-12-29T08:05:31;100128.19;;;6.96;78.64
77086;BME280;66014;53.134;18.006;2023-12-29T08:07:57;100134.66;;;7.03;78.77
77086;BME280;66014;53.134;18.006;2023-12-29T08:10:22;100136.48;;;7.09;78.54
77086;BME280;66014;53.134;18.006;2023-12-29T08:12:48;100134.55;;;7.13;78.41
77086;BME280;66014;53.134;18.006;2023-12-29T08:15:14;100133.80;;;7.16;78.21
77086;BME280;66014;53.134;18.006;2023-12-29T08:17:40;100139.38;;;7.18;78.12
77086;BME280;66014;53.134;18.006;2023-12-29T08:20:06;100134.62;;;7.19;78.05
77086;BME280;66014;53.134;18.006;2023-12-29T08:22:32;100137.51;;;7.23;78.00
77086;BME280;66014;53.134;18.006;2023-12-29T08:24:58;100135.56;;;7.28;78.01
77086;BME280;66014;53.134;18.006;2023-12-29T08:27:25;100128.13;;;7.35;78.10
77086;BME280;66014;53.134;18.006;2023-12-29T08:29:54;100128.58;;;7.43;77.80
77086;BME280;66014;53.134;18.006;2023-12-29T08:32:20;100125.02;;;7.50;77.80
77086;BME280;66014;53.134;18.006;2023-12-29T08:34:47;100132.09;;;7.53;77.52
77086;BME280;66014;53.134;18.006;2023-12-29T08:37:13;100135.92;;;7.53;77.41
77086;BME280;66014;53.134;18.006;2023-12-29T08:39:46;100135.83;;;7.52;77.63
77086;BME280;66014;53.134;18.006;2023-12-29T08:42:14;100129.80;;;7.53;77.77
77086;BME280;66014;53.134;18.006;2023-12-29T08:44:40;100125.89;;;7.54;77.82
77086;BME280;66014;53.134;18.006;2023-12-29T08:47:07;100129.91;;;7.59;77.30
77086;BME280;66014;53.134;18.006;2023-12-29T08:49:35;100134.11;;;7.64;77.13
77086;BME280;66014;53.134;18.006;2023-12-29T08:52:02;100129.34;;;7.65;76.99
77086;BME280;66014;53.134;18.006;2023-12-29T08:54:28;100131.22;;;7.67;77.03
77086;BME280;66014;53.134;18.006;2023-12-29T08:56:55;100134.56;;;7.68;76.50
77086;BME280;66014;53.134;18.006;2023-12-29T08:59:21;100129.57;;;7.72;76.84
77086;BME280;66014;53.134;18.006;2023-12-29T09:01:49;100134.95;;;7.77;76.32
77086;BME280;66014;53.134;18.006;2023-12-29T09:04:16;100131.58;;;7.82;76.61
77086;BME280;66014;53.134;18.006;2023-12-29T09:06:42;100135.05;;;7.84;76.83
77086;BME280;66014;53.134;18.006;2023-12-29T09:09:08;100127.59;;;7.86;77.23
77086;BME280;66014;53.134;18.006;2023-12-29T09:11:39;100132.05;;;7.89;76.93
77086;BME280;66014;53.134;18.006;2023-12-29T09:14:05;100133.40;;;7.91;76.94
77086;BME280;66014;53.134;18.006;2023-12-29T09:16:31;100131.54;;;7.92;77.05
77086;BME280;66014;53.134;18.006;2023-12-29T09:18:57;100136.41;;;7.91;77.04
77086;BME280;66014;53.134;18.006;2023-12-29T09:21:23;100131.15;;;7.90;77.06
77086;BME280;66014;53.134;18.006;2023-12-29T09:23:48;100127.95;;;7.93;76.93
77086;BME280;66014;53.134;18.006;2023-12-29T09:26:16;100122.37;;;7.96;77.00
77086;BME280;66014;53.134;18.006;2023-12-29T09:28:42;100117.02;;;8.01;77.04
77086;BME280;66014;53.134;18.006;2023-12-29T09:31:11;100114.95;;;8.05;76.91
77086;BME280;66014;53.134;18.006;2023-12-29T09:33:38;100104.44;;;8.07;77.08
77086;BME280;66014;53.134;18.006;2023-12-29T09:36:04;100104.67;;;8.10;77.01
77086;BME280;66014;53.134;18.006;2023-12-29T09:38:30;100101.05;;;8.12;77.02
77086;BME280;66014;53.134;18.006;2023-12-29T09:41:04;100096.07;;;8.14;76.32
77086;BME280;66014;53.134;18.006;2023-12-29T09:43:35;100086.09;;;8.18;76.36
77086;BME280;66014;53.134;18.006;2023-12-29T09:46:03;100087.66;;;8.21;76.44
77086;BME280;66014;53.134;18.006;2023-12-29T09:48:31;100091.48;;;8.26;75.85
77086;BME280;66014;53.134;18.006;2023-12-29T09:50:57;100098.61;;;8.32;75.92
77086;BME280;66014;53.134;18.006;2023-12-29T09:53:24;100105.17;;;8.36;75.33
77086;BME280;66014;53.134;18.006;2023-12-29T09:55:51;100104.58;;;8.41;75.04
77086;BME280;66014;53.134;18.006;2023-12-29T09:58:21;100104.91;;;8.46;75.27
77086;BME280;66014;53.134;18.006;2023-12-29T10:00:49;100100.42;;;8.51;74.85
77086;BME280;66014;53.134;18.006;2023-12-29T10:03:16;100096.94;;;8.56;74.50
77086;BME280;66014;53.134;18.006;2023-12-29T10:05:44;100099.27;;;8.64;74.46
77086;BME280;66014;53.134;18.006;2023-12-29T10:08:14;100099.69;;;8.74;74.19
77086;BME280;66014;53.134;18.006;2023-12-29T10:10:42;100089.19;;;8.83;73.34
77086;BME280;66014;53.134;18.006;2023-12-29T10:13:10;100085.77;;;8.94;72.86
77086;BME280;66014;53.134;18.006;2023-12-29T10:15:55;100086.19;;;9.02;72.44
77086;BME280;66014;53.134;18.006;2023-12-29T10:24:29;100093.61;;;9.23;71.76
77086;BME280;66014;53.134;18.006;2023-12-29T10:26:55;100090.70;;;9.25;71.67
77086;BME280;66014;53.134;18.006;2023-12-29T10:29:21;100089.90;;;9.26;71.96
77086;BME280;66014;53.134;18.006;2023-12-29T10:31:47;100089.16;;;9.23;72.21
77086;BME280;66014;53.134;18.006;2023-12-29T10:34:23;100096.21;;;9.16;71.90
77086;BME280;66014;53.134;18.006;2023-12-29T10:37:01;100096.66;;;9.11;71.87
77086;BME280;66014;53.134;18.006;2023-12-29T10:39:29;100092.46;;;9.09;72.08
77086;BME280;66014;53.134;18.006;2023-12-29T10:42:05;100089.84;;;9.09;72.16
77086;BME280;66014;53.134;18.006;2023-12-29T10:44:36;100098.45;;;9.11;72.19
77086;BME280;66014;53.134;18.006;2023-12-29T10:47:09;100093.23;;;9.19;71.80
77086;BME280;66014;53.134;18.006;2023-12-29T10:49:36;100098.52;;;9.33;71.50
77086;BME280;66014;53.134;18.006;2023-12-29T10:52:16;100097.93;;;9.47;70.89
77086;BME280;66014;53.134;18.006;2023-12-29T10:54:44;100094.33;;;9.62;70.59
77086;BME280;66014;53.134;18.006;2023-12-29T10:57:12;100097.31;;;9.81;70.11
77086;BME280;66014;53.134;18.006;2023-12-29T10:59:39;100102.33;;;9.99;68.86
77086;BME280;66014;53.134;18.006;2023-12-29T11:02:06;100094.30;;;10.09;69.06
77086;BME280;66014;53.134;18.006;2023-12-29T11:04:33;100089.79;;;10.16;68.99
77086;BME280;66014;53.134;18.006;2023-12-29T11:06:59;100091.31;;;10.16;69.09
77086;BME280;66014;53.134;18.006;2023-12-29T11:09:34;100090.20;;;10.20;68.63
77086;BME280;66014;53.134;18.006;2023-12-29T11:12:02;100084.23;;;10.32;68.59
77086;BME280;66014;53.134;18.006;2023-12-29T11:14:29;100084.91;;;10.55;68.42
77086;BME280;66014;53.134;18.006;2023-12-29T11:16:56;100082.70;;;10.68;66.76
77086;BME280;66014;53.134;18.006;2023-12-29T11:19:23;100080.11;;;10.70;67.34
77086;BME280;66014;53.134;18.006;2023-12-29T11:21:52;100079.59;;;10.67;67.37
77086;BME280;66014;53.134;18.006;2023-12-29T11:24:22;100086.35;;;10.59;67.42
77086;BME280;66014;53.134;18.006;2023-12-29T11:26:51;100084.36;;;10.48;68.20
77086;BME280;66014;53.134;18.006;2023-12-29T11:29:18;100079.88;;;10.38;67.78
77086;BME280;66014;53.134;18.006;2023-12-29T11:31:46;100074.88;;;10.24;67.63
77086;BME280;66014;53.134;18.006;2023-12-29T11:34:22;100074.23;;;10.16;68.26
77086;BME280;66014;53.134;18.006;2023-12-29T11:36:57;100070.77;;;10.08;68.92
77086;BME280;66014;53.134;18.006;2023-12-29T11:39:50;100078.69;;;10.04;68.85
77086;BME280;66014;53.134;18.006;2023-12-29T11:42:33;100072.93;;;10.00;68.90
77086;BME280;66014;53.134;18.006;2023-12-29T11:45:24;100084.02;;;10.01;68.72
77086;BME280;66014;53.134;18.006;2023-12-29T11:47:52;100083.35;;;10.05;69.00
77086;BME280;66014;53.134;18.006;2023-12-29T11:50:32;100078.77;;;10.18;68.23
77086;BME280;66014;53.134;18.006;2023-12-29T11:52:58;100077.05;;;10.27;67.71
77086;BME280;66014;53.134;18.006;2023-12-29T11:55:29;100069.94;;;10.30;68.42
77086;BME280;66014;53.134;18.006;2023-12-29T11:57:58;100069.20;;;10.30;67.68
77086;BME280;66014;53.134;18.006;2023-12-29T12:00:44;100073.42;;;10.28;67.67
77086;BME280;66014;53.134;18.006;2023-12-29T12:05:48;100077.83;;;10.18;68.15
77086;BME280;66014;53.134;18.006;2023-12-29T12:08:37;100080.69;;;10.15;68.59
77086;BME280;66014;53.134;18.006;2023-12-29T12:13:57;100100.09;;;10.10;68.21
77086;BME280;66014;53.134;18.006;2023-12-29T12:19:14;100075.98;;;10.03;68.39
77086;BME280;66014;53.134;18.006;2023-12-29T12:21:41;100076.13;;;9.99;68.45
77086;BME280;66014;53.134;18.006;2023-12-29T12:24:07;100071.41;;;9.95;68.89
77086;BME280;66014;53.134;18.006;2023-12-29T12:26:34;100064.54;;;9.92;68.51
77086;BME280;66014;53.134;18.006;2023-12-29T12:29:01;100071.54;;;9.90;68.40
77086;BME280;66014;53.134;18.006;2023-12-29T12:31:27;100088.75;;;9.88;68.82
77086;BME280;66014;53.134;18.006;2023-12-29T12:33:54;100092.35;;;9.86;68.97
77086;BME280;66014;53.134;18.006;2023-12-29T12:36:21;100094.20;;;9.84;69.03
77086;BME280;66014;53.134;18.006;2023-12-29T12:38:51;100087.21;;;9.84;68.94
77086;BME280;66014;53.134;18.006;2023-12-29T12:41:17;100089.17;;;9.83;68.76
77086;BME280;66014;53.134;18.006;2023-12-29T12:43:50;100088.23;;;9.84;68.80
77086;BME280;66014;53.134;18.006;2023-12-29T12:46:22;100086.89;;;9.85;68.70
77086;BME280;66014;53.134;18.006;2023-12-29T12:48:53;100081.04;;;9.83;68.94
77086;BME280;66014;53.134;18.006;2023-12-29T12:51:21;100080.30;;;9.84;68.87
77086;BME280;66014;53.134;18.006;2023-12-29T12:53:48;100086.65;;;9.85;68.48
77086;BME280;66014;53.134;18.006;2023-12-29T12:56:15;100088.05;;;9.85;68.78
77086;BME280;66014;53.134;18.006;2023-12-29T12:58:42;100088.78;;;9.85;68.45
77086;BME280;66014;53.134;18.006;2023-12-29T13:01:09;100080.58;;;9.86;68.68
77086;BME280;66014;53.134;18.006;2023-12-29T13:03:38;100075.95;;;9.86;68.26
77086;BME280;66014;53.134;18.006;2023-12-29T13:06:05;100079.40;;;9.87;68.54
77086;BME280;66014;53.134;18.006;2023-12-29T13:08:34;100084.39;;;9.86;68.33
77086;BME280;66014;53.134;18.006;2023-12-29T13:11:00;100091.46;;;9.87;68.03
77086;BME280;66014;53.134;18.006;2023-12-29T13:13:41;100085.14;;;9.86;67.75